sensor_id;sensor_type;location;lat;lon;timestamp;temperature;humidity
21149;DHT22;10732;51.472;6.466;2024-02-04T00:01:25;9.80;99.90
21149;DHT22;10732;51.472;6.466;2024-02-04T00:03:50;9.80;99.90
21149;DHT22;10732;51.472;6.466;2024-02-04T00:06:16;9.80;99.90
21149;DHT22;10732;51.472;6.466;2024-02-04T00:08:41;9.80;99.90
21149;DHT22;10732;51.472;6.466;2024-02-04T00:11:07;9.80;99.90
21149;DHT22;10732;51.472;6.466;2024-02-04T00:13:36;9.80;99.90
21149;DHT22;10732;51.472;6.466;2024-02-04T00:16:02;9.80;99.90
21149;DHT22;10732;51.472;6.466;2024-02-04T00:18:27;9.70;99.90
21149;DHT22;10732;51.472;6.466;2024-02-04T00:20:53;9.80;99.90
21149;DHT22;10732;51.472;6.466;2024-02-04T00:23:19;9.70;99.90
21149;DHT22;10732;51.472;6.466;2024-02-04T00:25:44;9.70;99.90
21149;DHT22;10732;51.472;6.466;2024-02-04T00:28:10;9.70;99.90
21149;DHT22;10732;51.472;6.466;2024-02-04T00:30:38;9.70;99.90
21149;DHT22;10732;51.472;6.466;2024-02-04T00:33:04;9.70;99.90
21149;DHT22;10732;51.472;6.466;2024-02-04T00:35:30;9.70;99.90
21149;DHT22;10732;51.472;6.466;2024-02-04T00:37:56;9.70;99.90
21149;DHT22;10732;51.472;6.466;2024-02-04T00:40:21;9.70;99.90
21149;DHT22;10732;51.472;6.466;2024-02-04T00:42:47;9.70;99.90
21149;DHT22;10732;51.472;6.466;2024-02-04T00:45:12;9.70;99.90
21149;DHT22;10732;51.472;6.466;2024-02-04T00:47:38;9.70;99.90
21149;DHT22;10732;51.472;6.466;2024-02-04T00:50:04;9.70;99.90
21149;DHT22;10732;51.472;6.466;2024-02-04T00:52:30;9.70;99.90
21149;DHT22;10732;51.472;6.466;2024-02-04T00:54:55;9.70;99.90
21149;DHT22;10732;51.472;6.466;2024-02-04T00:57:21;9.70;99.90
21149;DHT22;10732;51.472;6.466;2024-02-04T00:59:46;9.70;99.90
21149;DHT22;10732;51.472;6.466;2024-02-04T01:02:13;9.70;99.90
21149;DHT22;10732;51.472;6.466;2024-02-04T01:04:39;9.70;99.90
21149;DHT22;10732;51.472;6.466;2024-02-04T01:07:04;9.70;99.90
21149;DHT22;10732;51.472;6.466;2024-02-04T01:09:30;9.70;99.90
21149;DHT22;10732;51.472;6.466;2024-02-04T01:11:55;9.70;99.90
21149;DHT22;10732;51.472;6.466;2024-02-04T01:14:21;9.80;99.90
21149;DHT22;10732;51.472;6.466;2024-02-04T01:16:46;9.80;99.90
21149;DHT22;10732;51.472;6.466;2024-02-04T01:19:12;9.80;99.90
21149;DHT22;10732;51.472;6.466;2024-02-04T01:21:38;9.80;99.90
21149;DHT22;10732;51.472;6.466;2024-02-04T01:24:03;9.80;99.90
21149;DHT22;10732;51.472;6.466;2024-02-04T01:26:29;9.80;99.90
21149;DHT22;10732;51.472;6.466;2024-02-04T01:28:54;9.80;99.90
21149;DHT22;10732;51.472;6.466;2024-02-04T01:31:20;9.80;99.90
21149;DHT22;10732;51.472;6.466;2024-02-04T01:33:46;9.80;99.90
21149;DHT22;10732;51.472;6.466;2024-02-04T01:36:11;9.80;99.90
21149;DHT22;10732;51.472;6.466;2024-02-04T01:38:37;9.80;99.90
21149;DHT22;10732;51.472;6.466;2024-02-04T01:41:02;9.80;99.90
21149;DHT22;10732;51.472;6.466;2024-02-04T01:43:28;9.80;99.90
21149;DHT22;10732;51.472;6.466;2024-02-04T01:45:54;9.80;99.90
21149;DHT22;10732;51.472;6.466;2024-02-04T01:48:21;9.90;99.90
21149;DHT22;10732;51.472;6.466;2024-02-04T01:50:48;9.80;99.90
21149;DHT22;10732;51.472;6.466;2024-02-04T01:53:17;9.80;99.90
21149;DHT22;10732;51.472;6.466;2024-02-04T01:55:44;9.80;99.90
21149;DHT22;10732;51.472;6.466;2024-02-04T01:58:09;9.90;99.90
21149;DHT22;10732;51.472;6.466;2024-02-04T02:00:35;9.80;99.90
21149;DHT22;10732;51.472;6.466;2024-02-04T02:03:01;9.90;99.90
21149;DHT22;10732;51.472;6.466;2024-02-04T02:05:29;9.80;99.90
21149;DHT22;10732;51.472;6.466;2024-02-04T02:07:54;9.90;99.90
21149;DHT22;10732;51.472;6.466;2024-02-04T02:10:20;9.80;99.90
21149;DHT22;10732;51.472;6.466;2024-02-04T02:13:04;9.90;99.90
21149;DHT22;10732;51.472;6.466;2024-02-04T02:15:34;9.90;99.90
21149;DHT22;10732;51.472;6.466;2024-02-04T02:18:12;9.90;99.90
21149;DHT22;10732;51.472;6.466;2024-02-04T02:20:55;9.90;99.90
21149;DHT22;10732;51.472;6.466;2024-02-04T02:23:31;9.90;99.90
21149;DHT22;10732;51.472;6.466;2024-02-04T02:25:59;9.90;99.90
21149;DHT22;10732;51.472;6.466;2024-02-04T02:28:25;9.90;99.90
21149;DHT22;10732;51.472;6.466;2024-02-04T02:30:51;9.90;99.90
21149;DHT22;10732;51.472;6.466;2024-02-04T02:33:16;9.90;99.90
21149;DHT22;10732;51.472;6.466;2024-02-04T02:35:43;9.90;99.90
21149;DHT22;10732;51.472;6.466;2024-02-04T02:38:52;9.90;99.90
21149;DHT22;10732;51.472;6.466;2024-02-04T02:41:24;9.90;99.90
21149;DHT22;10732;51.472;6.466;2024-02-04T02:43:52;10.00;99.90
21149;DHT22;10732;51.472;6.466;2024-02-04T02:46:20;10.00;99.90
21149;DHT22;10732;51.472;6.466;2024-02-04T02:48:46;10.00;99.90
21149;DHT22;10732;51.472;6.466;2024-02-04T02:51:11;10.00;99.90
21149;DHT22;10732;51.472;6.466;2024-02-04T02:53:37;10.00;99.90
21149;DHT22;10732;51.472;6.466;2024-02-04T02:56:03;9.90;99.90
21149;DHT22;10732;51.472;6.466;2024-02-04T02:58:28;10.00;99.90
21149;DHT22;10732;51.472;6.466;2024-02-04T03:00:54;10.00;99.90
21149;DHT22;10732;51.472;6.466;2024-02-04T03:03:19;9.90;99.90
21149;DHT22;10732;51.472;6.466;2024-02-04T03:05:45;9.90;99.90
21149;DHT22;10732;51.472;6.466;2024-02-04T03:08:10;10.00;99.90
21149;DHT22;10732;51.472;6.466;2024-02-04T03:10:36;10.00;99.90
21149;DHT22;10732;51.472;6.466;2024-02-04T03:13:01;10.00;99.90
21149;DHT22;10732;51.472;6.466;2024-02-04T03:15:27;10.00;99.90
21149;DHT22;10732;51.472;6.466;2024-02-04T03:17:53;10.00;99.90
21149;DHT22;10732;51.472;6.466;2024-02-04T03:20:18;10.00;99.90
21149;DHT22;10732;51.472;6.466;2024-02-04T03:22:45;10.00;99.90
21149;DHT22;10732;51.472;6.466;2024-02-04T03:25:11;10.00;99.90
21149;DHT22;10732;51.472;6.466;2024-02-04T03:27:37;10.00;99.90
21149;DHT22;10732;51.472;6.466;2024-02-04T03:30:02;10.00;99.90
21149;DHT22;10732;51.472;6.466;2024-02-04T03:32:29;10.00;99.90
21149;DHT22;10732;51.472;6.466;2024-02-04T03:35:02;10.00;99.90
21149;DHT22;10732;51.472;6.466;2024-02-04T03:37:28;10.00;99.90
21149;DHT22;10732;51.472;6.466;2024-02-04T03:39:53;10.00;99.90
21149;DHT22;10732;51.472;6.466;2024-02-04T03:42:19;10.00;99.90
21149;DHT22;10732;51.472;6.466;2024-02-04T03:44:46;10.00;99.90
21149;DHT22;10732;51.472;6.466;2024-02-04T03:47:12;10.00;99.90
21149;DHT22;10732;51.472;6.466;2024-02-04T03:49:38;10.00;99.90
21149;DHT22;10732;51.472;6.466;2024-02-04T03:52:04;10.00;99.90
21149;DHT22;10732;51.472;6.466;2024-02-04T03:54:29;10.00;99.90
21149;DHT22;10732;51.472;6.466;2024-02-04T03:56:55;10.00;99.90
21149;DHT22;10732;51.472;6.466;2024-02-04T03:59:20;10.00;99.90
21149;DHT22;10732;51.472;6.466;2024-02-04T04:01:49;10.00;99.90
21149;DHT22;10732;51.472;6.466;2024-02-04T04:04:16;10.10;99.90
21149;DHT22;10732;51.472;6.466;2024-02-04T04:06:44;10.00;99.90
21149;DHT22;10732;51.472;6.466;2024-02-04T04:09:10;10.00;99.90
21149;DHT22;10732;51.472;6.466;2024-02-04T04:11:36;10.00;99.90
21149;DHT22;10732;51.472;6.466;2024-02-04T04:14:01;10.00;99.90
21149;DHT22;10732;51.472;6.466;2024-02-04T04:16:27;10.00;99.90
21149;DHT22;10732;51.472;6.466;2024-02-04T04:18:53;10.10;99.90
21149;DHT22;10732;51.472;6.466;2024-02-04T04:21:18;10.10;99.90
21149;DHT22;10732;51.472;6.466;2024-02-04T04:23:44;10.10;99.90
21149;DHT22;10732;51.472;6.466;2024-02-04T04:26:10;10.10;99.90
21149;DHT22;10732;51.472;6.466;2024-02-04T04:28:35;10.00;99.90
21149;DHT22;10732;51.472;6.466;2024-02-04T04:31:01;10.00;99.90
21149;DHT22;10732;51.472;6.466;2024-02-04T04:33:27;10.00;99.90
21149;DHT22;10732;51.472;6.466;2024-02-04T04:35:52;10.00;99.90
21149;DHT22;10732;51.472;6.466;2024-02-04T04:38:18;10.00;99.90
21149;DHT22;10732;51.472;6.466;2024-02-04T04:40:43;10.00;99.90
21149;DHT22;10732;51.472;6.466;2024-02-04T04:43:09;10.00;99.90
21149;DHT22;10732;51.472;6.466;2024-02-04T04:45:34;10.00;99.90
21149;DHT22;10732;51.472;6.466;2024-02-04T04:48:00;9.90;99.90
21149;DHT22;10732;51.472;6.466;2024-02-04T04:50:26;10.00;99.90
21149;DHT22;10732;51.472;6.466;2024-02-04T04:52:52;10.00;99.90
21149;DHT22;10732;51.472;6.466;2024-02-04T04:55:19;9.90;99.90
21149;DHT22;10732;51.472;6.466;2024-02-04T04:57:44;10.00;99.90
21149;DHT22;10732;51.472;6.466;2024-02-04T05:00:10;10.00;99.90
21149;DHT22;10732;51.472;6.466;2024-02-04T05:02:37;10.00;99.90
21149;DHT22;10732;51.472;6.466;2024-02-04T05:05:03;9.90;99.90
21149;DHT22;10732;51.472;6.466;2024-02-04T05:07:28;9.90;99.90
21149;DHT22;10732;51.472;6.466;2024-02-04T05:09:54;9.90;99.90
21149;DHT22;10732;51.472;6.466;2024-02-04T05:12:20;9.90;99.90
21149;DHT22;10732;51.472;6.466;2024-02-04T05:14:45;9.90;99.90
21149;DHT22;10732;51.472;6.466;2024-02-04T05:17:11;9.90;99.90
21149;DHT22;10732;51.472;6.466;2024-02-04T05:19:36;9.90;99.90
21149;DHT22;10732;51.472;6.466;2024-02-04T05:22:02;9.90;99.90
21149;DHT22;10732;51.472;6.466;2024-02-04T05:24:28;9.90;99.90
21149;DHT22;10732;51.472;6.466;2024-02-04T05:26:54;10.00;99.90
21149;DHT22;10732;51.472;6.466;2024-02-04T05:29:19;10.00;99.90
21149;DHT22;10732;51.472;6.466;2024-02-04T05:31:45;9.90;99.90
21149;DHT22;10732;51.472;6.466;2024-02-04T05:34:11;10.00;99.90
21149;DHT22;10732;51.472;6.466;2024-02-04T05:36:36;10.00;99.90
21149;DHT22;10732;51.472;6.466;2024-02-04T05:39:12;10.00;99.90
21149;DHT22;10732;51.472;6.466;2024-02-04T05:41:39;10.00;99.90
21149;DHT22;10732;51.472;6.466;2024-02-04T05:44:05;10.00;99.90
21149;DHT22;10732;51.472;6.466;2024-02-04T05:46:31;10.00;99.90
21149;DHT22;10732;51.472;6.466;2024-02-04T05:48:56;10.00;99.90
21149;DHT22;10732;51.472;6.466;2024-02-04T05:51:22;10.00;99.90
21149;DHT22;10732;51.472;6.466;2024-02-04T05:53:48;10.00;99.90
21149;DHT22;10732;51.472;6.466;2024-02-04T05:56:13;10.00;99.90
21149;DHT22;10732;51.472;6.466;2024-02-04T05:58:40;10.00;99.90
21149;DHT22;10732;51.472;6.466;2024-02-04T06:01:05;10.00;99.90
21149;DHT22;10732;51.472;6.466;2024-02-04T06:03:31;10.00;99.90
21149;DHT22;10732;51.472;6.466;2024-02-04T06:05:56;10.00;99.90
21149;DHT22;10732;51.472;6.466;2024-02-04T06:08:22;10.00;99.90
21149;DHT22;10732;51.472;6.466;2024-02-04T06:10:47;10.00;99.90
21149;DHT22;10732;51.472;6.466;2024-02-04T06:13:14;9.90;99.90
21149;DHT22;10732;51.472;6.466;2024-02-04T06:15:39;9.90;99.90
21149;DHT22;10732;51.472;6.466;2024-02-04T06:18:05;9.90;99.90
21149;DHT22;10732;51.472;6.466;2024-02-04T06:20:31;9.90;99.90
21149;DHT22;10732;51.472;6.466;2024-02-04T06:22:56;10.00;99.90
21149;DHT22;10732;51.472;6.466;2024-02-04T06:25:23;10.00;99.90
21149;DHT22;10732;51.472;6.466;2024-02-04T06:27:49;9.90;99.90
21149;DHT22;10732;51.472;6.466;2024-02-04T06:30:14;10.00;99.90
21149;DHT22;10732;51.472;6.466;2024-02-04T06:32:41;10.00;99.90
21149;DHT22;10732;51.472;6.466;2024-02-04T06:35:06;9.90;99.90
21149;DHT22;10732;51.472;6.466;2024-02-04T06:37:32;9.90;99.90
21149;DHT22;10732;51.472;6.466;2024-02-04T06:39:58;9.90;99.90
21149;DHT22;10732;51.472;6.466;2024-02-04T06:42:23;9.90;99.90
21149;DHT22;10732;51.472;6.466;2024-02-04T06:44:49;9.90;99.90
21149;DHT22;10732;51.472;6.466;2024-02-04T06:47:14;9.90;99.90
21149;DHT22;10732;51.472;6.466;2024-02-04T06:49:43;9.90;99.90
21149;DHT22;10732;51.472;6.466;2024-02-04T06:52:09;9.90;99.90
21149;DHT22;10732;51.472;6.466;2024-02-04T06:54:35;9.90;99.90
21149;DHT22;10732;51.472;6.466;2024-02-04T06:57:00;9.90;99.90
21149;DHT22;10732;51.472;6.466;2024-02-04T06:59:26;9.90;99.90
21149;DHT22;10732;51.472;6.466;2024-02-04T07:01:51;9.90;99.90
21149;DHT22;10732;51.472;6.466;2024-02-04T07:04:18;9.90;99.90
21149;DHT22;10732;51.472;6.466;2024-02-04T07:06:47;10.00;99.90
21149;DHT22;10732;51.472;6.466;2024-02-04T07:09:12;9.90;99.90
21149;DHT22;10732;51.472;6.466;2024-02-04T07:11:38;9.90;99.90
21149;DHT22;10732;51.472;6.466;2024-02-04T07:14:03;9.90;99.90
21149;DHT22;10732;51.472;6.466;2024-02-04T07:16:29;9.90;99.90
21149;DHT22;10732;51.472;6.466;2024-02-04T07:18:55;9.90;99.90
21149;DHT22;10732;51.472;6.466;2024-02-04T07:21:21;9.90;99.90
21149;DHT22;10732;51.472;6.466;2024-02-04T07:23:47;9.90;99.90
21149;DHT22;10732;51.472;6.466;2024-02-04T07:26:12;9.90;99.90
21149;DHT22;10732;51.472;6.466;2024-02-04T07:28:38;9.90;99.90
21149;DHT22;10732;51.472;6.466;2024-02-04T07:31:03;9.90;99.90
21149;DHT22;10732;51.472;6.466;2024-02-04T07:33:29;9.90;99.90
21149;DHT22;10732;51.472;6.466;2024-02-04T07:35:55;9.90;99.90
21149;DHT22;10732;51.472;6.466;2024-02-04T07:38:20;9.90;99.90
21149;DHT22;10732;51.472;6.466;2024-02-04T07:40:46;9.90;99.90
21149;DHT22;10732;51.472;6.466;2024-02-04T07:43:11;9.90;99.90
21149;DHT22;10732;51.472;6.466;2024-02-04T07:45:37;10.00;99.90
21149;DHT22;10732;51.472;6.466;2024-02-04T07:48:03;9.90;99.90
21149;DHT22;10732;51.472;6.466;2024-02-04T07:50:29;9.90;99.90
21149;DHT22;10732;51.472;6.466;2024-02-04T07:52:55;9.90;99.90
21149;DHT22;10732;51.472;6.466;2024-02-04T07:55:20;9.90;99.90
21149;DHT22;10732;51.472;6.466;2024-02-04T07:57:46;9.90;99.90
21149;DHT22;10732;51.472;6.466;2024-02-04T08:00:12;9.90;99.90
21149;DHT22;10732;51.472;6.466;2024-02-04T08:02:38;9.90;99.90
21149;DHT22;10732;51.472;6.466;2024-02-04T08:05:04;9.90;99.90
21149;DHT22;10732;51.472;6.466;2024-02-04T08:07:30;9.90;99.90
21149;DHT22;10732;51.472;6.466;2024-02-04T08:09:56;9.90;99.90
21149;DHT22;10732;51.472;6.466;2024-02-04T08:12:22;9.80;99.90
21149;DHT22;10732;51.472;6.466;2024-02-04T08:14:48;9.90;99.90
21149;DHT22;10732;51.472;6.466;2024-02-04T08:17:13;9.90;99.90
21149;DHT22;10732;51.472;6.466;2024-02-04T08:19:39;9.90;99.90
21149;DHT22;10732;51.472;6.466;2024-02-04T08:22:05;9.90;99.90
21149;DHT22;10732;51.472;6.466;2024-02-04T08:24:31;9.90;99.90
21149;DHT22;10732;51.472;6.466;2024-02-04T08:26:58;9.90;99.90
21149;DHT22;10732;51.472;6.466;2024-02-04T08:29:24;9.90;99.90
21149;DHT22;10732;51.472;6.466;2024-02-04T08:31:50;9.90;99.90
21149;DHT22;10732;51.472;6.466;2024-02-04T08:34:15;9.90;99.90
21149;DHT22;10732;51.472;6.466;2024-02-04T08:36:41;10.00;99.90
21149;DHT22;10732;51.472;6.466;2024-02-04T08:39:06;10.00;99.90
21149;DHT22;10732;51.472;6.466;2024-02-04T08:41:32;10.00;99.90
21149;DHT22;10732;51.472;6.466;2024-02-04T08:43:57;9.90;99.90
21149;DHT22;10732;51.472;6.466;2024-02-04T08:46:23;10.00;99.90
21149;DHT22;10732;51.472;6.466;2024-02-04T08:48:48;10.00;99.90
21149;DHT22;10732;51.472;6.466;2024-02-04T08:51:14;9.90;99.90
21149;DHT22;10732;51.472;6.466;2024-02-04T08:53:41;10.00;99.90
21149;DHT22;10732;51.472;6.466;2024-02-04T08:56:08;10.00;99.90
21149;DHT22;10732;51.472;6.466;2024-02-04T08:58:35;10.10;99.90
21149;DHT22;10732;51.472;6.466;2024-02-04T09:01:05;10.10;99.90
21149;DHT22;10732;51.472;6.466;2024-02-04T09:03:30;10.10;99.90
21149;DHT22;10732;51.472;6.466;2024-02-04T09:05:57;10.10;99.90
21149;DHT22;10732;51.472;6.466;2024-02-04T09:08:22;10.20;99.90
21149;DHT22;10732;51.472;6.466;2024-02-04T09:10:48;10.20;99.90
21149;DHT22;10732;51.472;6.466;2024-02-04T09:13:14;10.20;99.90
21149;DHT22;10732;51.472;6.466;2024-02-04T09:15:39;10.20;99.90
21149;DHT22;10732;51.472;6.466;2024-02-04T09:18:05;10.30;99.90
21149;DHT22;10732;51.472;6.466;2024-02-04T09:20:30;10.30;99.90
21149;DHT22;10732;51.472;6.466;2024-02-04T09:22:56;10.30;99.90
21149;DHT22;10732;51.472;6.466;2024-02-04T09:25:21;10.20;99.90
21149;DHT22;10732;51.472;6.466;2024-02-04T09:27:47;10.20;99.90
21149;DHT22;10732;51.472;6.466;2024-02-04T09:30:13;10.20;99.90
21149;DHT22;10732;51.472;6.466;2024-02-04T09:32:38;10.30;99.90
21149;DHT22;10732;51.472;6.466;2024-02-04T09:35:04;10.30;99.90
21149;DHT22;10732;51.472;6.466;2024-02-04T09:37:30;10.20;99.90
21149;DHT22;10732;51.472;6.466;2024-02-04T09:39:55;10.20;99.90
21149;DHT22;10732;51.472;6.466;2024-02-04T09:42:21;10.20;99.90
21149;DHT22;10732;51.472;6.466;2024-02-04T09:44:49;10.20;99.90
21149;DHT22;10732;51.472;6.466;2024-02-04T09:47:14;10.30;99.90
21149;DHT22;10732;51.472;6.466;2024-02-04T09:49:40;10.40;99.90
21149;DHT22;10732;51.472;6.466;2024-02-04T09:52:09;10.40;99.90
21149;DHT22;10732;51.472;6.466;2024-02-04T09:54:45;10.40;99.90
21149;DHT22;10732;51.472;6.466;2024-02-04T09:57:12;10.40;99.90
21149;DHT22;10732;51.472;6.466;2024-02-04T09:59:38;10.50;99.90
21149;DHT22;10732;51.472;6.466;2024-02-04T10:02:04;10.50;99.90
21149;DHT22;10732;51.472;6.466;2024-02-04T10:04:30;10.50;99.90
21149;DHT22;10732;51.472;6.466;2024-02-04T10:06:56;10.60;99.90
21149;DHT22;10732;51.472;6.466;2024-02-04T10:09:22;10.70;99.90
21149;DHT22;10732;51.472;6.466;2024-02-04T10:11:47;10.70;99.90
21149;DHT22;10732;51.472;6.466;2024-02-04T10:14:13;10.70;99.90
21149;DHT22;10732;51.472;6.466;2024-02-04T10:16:40;10.80;99.90
21149;DHT22;10732;51.472;6.466;2024-02-04T10:19:06;10.70;99.90
21149;DHT22;10732;51.472;6.466;2024-02-04T10:21:31;10.70;99.90
21149;DHT22;10732;51.472;6.466;2024-02-04T10:23:57;10.70;99.90
21149;DHT22;10732;51.472;6.466;2024-02-04T10:26:22;10.80;99.90
21149;DHT22;10732;51.472;6.466;2024-02-04T10:28:49;10.90;99.90
21149;DHT22;10732;51.472;6.466;2024-02-04T10:31:15;11.00;99.90
21149;DHT22;10732;51.472;6.466;2024-02-04T10:33:40;11.00;99.90
21149;DHT22;10732;51.472;6.466;2024-02-04T10:36:06;11.00;99.90
21149;DHT22;10732;51.472;6.466;2024-02-04T10:38:32;10.90;99.90
21149;DHT22;10732;51.472;6.466;2024-02-04T10:41:00;10.90;99.90
21149;DHT22;10732;51.472;6.466;2024-02-04T10:43:32;10.80;99.90
21149;DHT22;10732;51.472;6.466;2024-02-04T10:46:17;10.80;99.90
21149;DHT22;10732;51.472;6.466;2024-02-04T10:48:43;10.70;99.90
21149;DHT22;10732;51.472;6.466;2024-02-04T10:51:13;10.60;99.90
21149;DHT22;10732;51.472;6.466;2024-02-04T10:53:43;10.70;99.90
21149;DHT22;10732;51.472;6.466;2024-02-04T10:56:18;10.60;99.90
21149;DHT22;10732;51.472;6.466;2024-02-04T10:58:46;10.60;99.90
21149;DHT22;10732;51.472;6.466;2024-02-04T11:01:12;10.60;99.90
21149;DHT22;10732;51.472;6.466;2024-02-04T11:03:39;10.70;99.90
21149;DHT22;10732;51.472;6.466;2024-02-04T11:06:07;10.60;99.90
21149;DHT22;10732;51.472;6.466;2024-02-04T11:08:32;10.60;99.90
21149;DHT22;10732;51.472;6.466;2024-02-04T11:10:58;10.60;99.90
21149;DHT22;10732;51.472;6.466;2024-02-04T11:13:25;10.60;99.90
21149;DHT22;10732;51.472;6.466;2024-02-04T11:15:53;10.60;99.90
21149;DHT22;10732;51.472;6.466;2024-02-04T11:18:52;10.60;99.90
21149;DHT22;10732;51.472;6.466;2024-02-04T11:27:20;10.60;99.90
21149;DHT22;10732;51.472;6.466;2024-02-04T11:29:48;10.60;99.90
21149;DHT22;10732;51.472;6.466;2024-02-04T11:32:14;10.70;99.90
21149;DHT22;10732;51.472;6.466;2024-02-04T11:34:40;10.60;99.90
21149;DHT22;10732;51.472;6.466;2024-02-04T11:37:16;10.70;99.90
21149;DHT22;10732;51.472;6.466;2024-02-04T11:39:53;10.70;99.90
21149;DHT22;10732;51.472;6.466;2024-02-04T11:42:22;10.70;99.90
21149;DHT22;10732;51.472;6.466;2024-02-04T11:44:47;10.70;99.90
21149;DHT22;10732;51.472;6.466;2024-02-04T11:47:23;10.70;99.90
21149;DHT22;10732;51.472;6.466;2024-02-04T11:49:58;10.80;99.90
21149;DHT22;10732;51.472;6.466;2024-02-04T11:52:27;10.80;99.90
21149;DHT22;10732;51.472;6.466;2024-02-04T11:54:53;10.90;99.90
21149;DHT22;10732;51.472;6.466;2024-02-04T11:57:19;10.90;99.90
21149;DHT22;10732;51.472;6.466;2024-02-04T11:59:46;10.90;99.90
21149;DHT22;10732;51.472;6.466;2024-02-04T12:02:12;11.00;99.90
21149;DHT22;10732;51.472;6.466;2024-02-04T12:04:39;11.00;99.90
21149;DHT22;10732;51.472;6.466;2024-02-04T12:07:05;11.00;99.90
21149;DHT22;10732;51.472;6.466;2024-02-04T12:09:30;11.00;99.90
21149;DHT22;10732;51.472;6.466;2024-02-04T12:11:57;11.00;99.90
21149;DHT22;10732;51.472;6.466;2024-02-04T12:14:23;10.90;99.90
21149;DHT22;10732;51.472;6.466;2024-02-04T12:16:49;10.90;99.90
21149;DHT22;10732;51.472;6.466;2024-02-04T12:19:14;10.90;99.90
21149;DHT22;10732;51.472;6.466;2024-02-04T12:21:40;10.90;99.90
21149;DHT22;10732;51.472;6.466;2024-02-04T12:24:06;11.00;99.90
21149;DHT22;10732;51.472;6.466;2024-02-04T12:26:32;11.00;99.90
21149;DHT22;10732;51.472;6.466;2024-02-04T12:28:58;11.10;99.90
21149;DHT22;10732;51.472;6.466;2024-02-04T12:31:27;11.10;99.90
21149;DHT22;10732;51.472;6.466;2024-02-04T12:33:58;11.20;99.90
21149;DHT22;10732;51.472;6.466;2024-02-04T12:36:29;11.30;99.90
21149;DHT22;10732;51.472;6.466;2024-02-04T12:39:00;11.40;99.90
21149;DHT22;10732;51.472;6.466;2024-02-04T12:41:27;11.40;99.90
21149;DHT22;10732;51.472;6.466;2024-02-04T12:43:57;11.40;99.90
21149;DHT22;10732;51.472;6.466;2024-02-04T12:46:27;11.30;99.90
21149;DHT22;10732;51.472;6.466;2024-02-04T12:48:54;11.20;99.90
21149;DHT22;10732;51.472;6.466;2024-02-04T12:51:31;11.20;99.90
21149;DHT22;10732;51.472;6.466;2024-02-04T12:54:05;11.20;99.90
21149;DHT22;10732;51.472;6.466;2024-02-04T12:59:05;11.00;99.90
21149;DHT22;10732;51.472;6.466;2024-02-04T13:01:31;11.00;99.90
21149;DHT22;10732;51.472;6.466;2024-02-04T13:03:57;11.00;99.90
21149;DHT22;10732;51.472;6.466;2024-02-04T13:06:22;11.10;99.90
21149;DHT22;10732;51.472;6.466;2024-02-04T13:08:48;11.10;99.90
21149;DHT22;10732;51.472;6.466;2024-02-04T13:11:19;11.10;99.90
21149;DHT22;10732;51.472;6.466;2024-02-04T13:13:45;11.00;99.90
21149;DHT22;10732;51.472;6.466;2024-02-04T13:16:11;11.00;99.90
21149;DHT22;10732;51.472;6.466;2024-02-04T13:18:36;11.00;99.90
21149;DHT22;10732;51.472;6.466;2024-02-04T13:21:02;11.00;99.90
21149;DHT22;10732;51.472;6.466;2024-02-04T13:23:28;11.00;99.90
21149;DHT22;10732;51.472;6.466;2024-02-04T13:25:53;11.00;99.90
21149;DHT22;10732;51.472;6.466;2024-02-04T13:28:19;11.00;99.90
21149;DHT22;10732;51.472;6.466;2024-02-04T13:30:44;10.90;99.90
21149;DHT22;10732;51.472;6.466;2024-02-04T13:33:10;10.90;99.90
21149;DHT22;10732;51.472;6.466;2024-02-04T13:35:36;10.90;99.90
21149;DHT22;10732;51.472;6.466;2024-02-04T13:38:01;10.90;99.90
21149;DHT22;10732;51.472;6.466;2024-02-04T13:40:27;10.90;99.90
21149;DHT22;10732;51.472;6.466;2024-02-04T13:42:53;10.80;99.90
21149;DHT22;10732;51.472;6.466;2024-02-04T13:45:19;10.80;99.90
21149;DHT22;10732;51.472;6.466;2024-02-04T13:47:45;10.80;99.90
21149;DHT22;10732;51.472;6.466;2024-02-04T13:50:11;10.80;99.90
21149;DHT22;10732;51.472;6.466;2024-02-04T13:52:37;10.70;99.90
21149;DHT22;10732;51.472;6.466;2024-02-04T13:55:03;10.70;99.90
21149;DHT22;10732;51.472;6.466;2024-02-04T13:57:33;10.70;99.90
21149;DHT22;10732;51.472;6.466;2024-02-04T13:59:59;10.70;99.90
21149;DHT22;10732;51.472;6.466;2024-02-04T14:02:24;10.70;99.90
21149;DHT22;10732;51.472;6.466;2024-02-04T14:04:52;10.70;99.90
21149;DHT22;10732;51.472;6.466;2024-02-04T14:07:18;10.70;99.90
21149;DHT22;10732;51.472;6.466;2024-02-04T14:09:43;10.70;99.90
21149;DHT22;10732;51.472;6.466;2024-02-04T14:12:09;10.70;99.90
21149;DHT22;10732;51.472;6.466;2024-02-04T14:14:36;10.70;99.90
21149;DHT22;10732;51.472;6.466;2024-02-04T14:17:02;10.80;99.90
21149;DHT22;10732;51.472;6.466;2024-02-04T14:19:28;10.80;99.90
21149;DHT22;10732;51.472;6.466;2024-02-04T14:21:54;10.80;99.90
21149;DHT22;10732;51.472;6.466;2024-02-04T14:24:19;10.80;99.90
21149;DHT22;10732;51.472;6.466;2024-02-04T14:26:45;10.80;99.90
21149;DHT22;10732;51.472;6.466;2024-02-04T14:29:11;10.80;99.90
21149;DHT22;10732;51.472;6.466;2024-02-04T14:31:36;10.80;99.90
21149;DHT22;10732;51.472;6.466;2024-02-04T14:34:02;10.80;99.90
21149;DHT22;10732;51.472;6.466;2024-02-04T14:36:27;10.80;99.90
21149;DHT22;10732;51.472;6.466;2024-02-04T14:38:53;10.80;99.90
21149;DHT22;10732;51.472;6.466;2024-02-04T14:41:19;10.90;99.90
21149;DHT22;10732;51.472;6.466;2024-02-04T14:43:44;10.90;99.90
21149;DHT22;10732;51.472;6.466;2024-02-04T14:46:10;10.90;99.90
21149;DHT22;10732;51.472;6.466;2024-02-04T14:48:36;10.90;99.90
21149;DHT22;10732;51.472;6.466;2024-02-04T14:51:02;10.90;99.90
21149;DHT22;10732;51.472;6.466;2024-02-04T14:53:28;11.00;99.90
21149;DHT22;10732;51.472;6.466;2024-02-04T14:55:54;11.00;99.90
21149;DHT22;10732;51.472;6.466;2024-02-04T14:58:21;11.00;99.90
21149;DHT22;10732;51.472;6.466;2024-02-04T15:00:47;10.90;99.90
21149;DHT22;10732;51.472;6.466;2024-02-04T15:03:13;11.00;99.90
21149;DHT22;10732;51.472;6.466;2024-02-04T15:05:40;10.90;99.90
21149;DHT22;10732;51.472;6.466;2024-02-04T15:08:06;10.90;99.90
21149;DHT22;10732;51.472;6.466;2024-02-04T15:10:31;10.90;99.90
21149;DHT22;10732;51.472;6.466;2024-02-04T15:12:58;10.90;99.90
21149;DHT22;10732;51.472;6.466;2024-02-04T15:15:24;10.90;99.90
21149;DHT22;10732;51.472;6.466;2024-02-04T15:17:50;10.90;99.90
21149;DHT22;10732;51.472;6.466;2024-02-04T15:20:16;10.90;99.90
21149;DHT22;10732;51.472;6.466;2024-02-04T15:22:43;10.90;99.90
21149;DHT22;10732;51.472;6.466;2024-02-04T15:25:09;10.90;99.90
21149;DHT22;10732;51.472;6.466;2024-02-04T15:27:36;10.90;99.90
21149;DHT22;10732;51.472;6.466;2024-02-04T15:30:02;10.90;99.90
21149;DHT22;10732;51.472;6.466;2024-02-04T15:32:28;10.90;99.90
21149;DHT22;10732;51.472;6.466;2024-02-04T15:34:54;10.80;99.90
21149;DHT22;10732;51.472;6.466;2024-02-04T15:37:20;10.80;99.90
21149;DHT22;10732;51.472;6.466;2024-02-04T15:39:46;10.80;99.90
21149;DHT22;10732;51.472;6.466;2024-02-04T15:42:11;10.80;99.90